sensor_id;sensor_type;location;lat;lon;timestamp;pressure;altitude;pressure_sealevel;temperature;humidity
74905;BME280;63465;50.862;6.220;2023-04-16T08:19:01;100571.09;;;22.45;40.89
74905;BME280;63465;50.862;6.220;2023-04-16T08:21:26;100568.88;;;23.23;43.80
74905;BME280;63465;50.862;6.220;2023-04-16T08:27:35;100574.59;;;24.98;37.62
74905;BME280;63465;50.862;6.220;2023-04-16T08:30:26;100585.44;;;23.80;38.07
74905;BME280;63465;50.862;6.220;2023-04-16T08:35:54;100579.88;;;8.81;100.00
74905;BME280;63465;50.862;6.220;2023-04-16T08:38:20;100570.56;;;8.66;100.00
74905;BME280;63465;50.862;6.220;2023-04-16T08:40:46;100572.84;;;8.45;100.00
74905;BME280;63465;50.862;6.220;2023-04-16T08:43:13;100581.94;;;8.35;100.00
74905;BME280;63465;50.862;6.220;2023-04-16T08:45:40;100578.34;;;8.36;100.00
74905;BME280;63465;50.862;6.220;2023-04-16T08:48:07;100580.41;;;8.25;100.00
74905;BME280;63465;50.862;6.220;2023-04-16T08:50:32;100584.50;;;8.38;100.00
74905;BME280;63465;50.862;6.220;2023-04-16T08:53:03;100576.38;;;8.46;100.00
74905;BME280;63465;50.862;6.220;2023-04-16T08:55:38;100588.16;;;8.32;100.00
74905;BME280;63465;50.862;6.220;2023-04-16T08:58:14;100587.19;;;8.36;100.00
74905;BME280;63465;50.862;6.220;2023-04-16T09:00:40;100597.78;;;8.35;100.00
74905;BME280;63465;50.862;6.220;2023-04-16T09:03:08;100599.34;;;8.44;100.00
74905;BME280;63465;50.862;6.220;2023-04-16T09:05:34;100600.22;;;8.44;100.00
74905;BME280;63465;50.862;6.220;2023-04-16T09:08:00;100603.47;;;8.55;100.00
74905;BME280;63465;50.862;6.220;2023-04-16T09:10:25;100605.22;;;8.56;100.00
74905;BME280;63465;50.862;6.220;2023-04-16T09:12:51;100607.00;;;8.54;100.00
74905;BME280;63465;50.862;6.220;2023-04-16T09:15:19;100601.50;;;8.64;100.00
74905;BME280;63465;50.862;6.220;2023-04-16T09:17:44;100607.84;;;8.56;100.00
74905;BME280;63465;50.862;6.220;2023-04-16T09:20:11;100610.66;;;8.50;100.00
74905;BME280;63465;50.862;6.220;2023-04-16T09:22:37;100618.44;;;8.56;100.00
74905;BME280;63465;50.862;6.220;2023-04-16T09:25:04;100608.59;;;8.62;100.00
74905;BME280;63465;50.862;6.220;2023-04-16T09:27:30;100597.31;;;8.55;100.00
74905;BME280;63465;50.862;6.220;2023-04-16T09:29:56;100609.44;;;8.64;100.00
74905;BME280;63465;50.862;6.220;2023-04-16T09:32:26;100608.59;;;8.62;100.00
74905;BME280;63465;50.862;6.220;2023-04-16T09:34:58;100614.78;;;8.62;100.00
74905;BME280;63465;50.862;6.220;2023-04-16T09:37:28;100619.09;;;8.65;100.00
74905;BME280;63465;50.862;6.220;2023-04-16T09:40:03;100613.75;;;8.66;100.00
74905;BME280;63465;50.862;6.220;2023-04-16T09:42:34;100618.84;;;8.74;100.00
74905;BME280;63465;50.862;6.220;2023-04-16T09:44:59;100619.91;;;8.68;100.00
74905;BME280;63465;50.862;6.220;2023-04-16T09:47:37;100633.97;;;8.69;100.00
74905;BME280;63465;50.862;6.220;2023-04-16T09:50:04;100631.41;;;8.66;100.00
74905;BME280;63465;50.862;6.220;2023-04-16T09:52:29;100635.56;;;8.76;100.00
74905;BME280;63465;50.862;6.220;2023-04-16T09:54:55;100634.56;;;8.80;100.00
74905;BME280;63465;50.862;6.220;2023-04-16T09:57:21;100633.56;;;8.84;100.00
74905;BME280;63465;50.862;6.220;2023-04-16T10:12:30;100641.09;;;9.00;100.00
74905;BME280;63465;50.862;6.220;2023-04-16T10:14:56;100638.75;;;8.89;100.00
74905;BME280;63465;50.862;6.220;2023-04-16T10:17:22;100636.78;;;8.96;100.00
74905;BME280;63465;50.862;6.220;2023-04-16T10:19:49;100642.50;;;9.13;100.00
74905;BME280;63465;50.862;6.220;2023-04-16T10:22:15;100633.41;;;8.90;100.00
74905;BME280;63465;50.862;6.220;2023-04-16T10:24:40;100640.19;;;9.01;100.00
74905;BME280;63465;50.862;6.220;2023-04-16T10:27:06;100638.09;;;9.12;100.00
74905;BME280;63465;50.862;6.220;2023-04-16T10:29:32;100645.09;;;9.15;100.00
74905;BME280;63465;50.862;6.220;2023-04-16T10:31:58;100646.88;;;9.14;100.00
74905;BME280;63465;50.862;6.220;2023-04-16T10:34:25;100641.34;;;9.23;100.00
74905;BME280;63465;50.862;6.220;2023-04-16T10:36:52;100643.59;;;9.37;100.00
74905;BME280;63465;50.862;6.220;2023-04-16T10:39:20;100636.19;;;9.49;100.00
74905;BME280;63465;50.862;6.220;2023-04-16T10:41:46;100644.91;;;9.52;100.00
74905;BME280;63465;50.862;6.220;2023-04-16T10:44:11;100641.44;;;9.50;100.00
74905;BME280;63465;50.862;6.220;2023-04-16T10:46:39;100648.56;;;9.78;100.00
74905;BME280;63465;50.862;6.220;2023-04-16T10:49:13;100650.31;;;9.79;100.00
74905;BME280;63465;50.862;6.220;2023-04-16T10:51:39;100640.00;;;9.70;100.00
74905;BME280;63465;50.862;6.220;2023-04-16T10:56:34;100636.59;;;9.64;100.00
74905;BME280;63465;50.862;6.220;2023-04-16T10:59:01;100646.19;;;9.69;100.00
74905;BME280;63465;50.862;6.220;2023-04-16T11:01:30;100638.19;;;9.70;100.00
74905;BME280;63465;50.862;6.220;2023-04-16T11:03:58;100631.09;;;9.71;100.00
74905;BME280;63465;50.862;6.220;2023-04-16T11:06:25;100638.44;;;9.62;100.00
74905;BME280;63465;50.862;6.220;2023-04-16T11:08:51;100638.97;;;9.74;100.00
74905;BME280;63465;50.862;6.220;2023-04-16T11:11:17;100645.06;;;10.06;100.00
74905;BME280;63465;50.862;6.220;2023-04-16T11:13:43;100640.78;;;10.02;100.00
74905;BME280;63465;50.862;6.220;2023-04-16T11:16:13;100638.06;;;9.75;100.00
74905;BME280;63465;50.862;6.220;2023-04-16T11:18:39;100644.53;;;9.64;100.00
74905;BME280;63465;50.862;6.220;2023-04-16T11:21:09;100633.84;;;9.68;100.00
74905;BME280;63465;50.862;6.220;2023-04-16T11:23:48;100640.09;;;9.67;100.00
74905;BME280;63465;50.862;6.220;2023-04-16T11:26:25;100649.78;;;9.66;100.00
74905;BME280;63465;50.862;6.220;2023-04-16T11:28:51;100647.09;;;9.97;100.00
74905;BME280;63465;50.862;6.220;2023-04-16T11:31:17;100643.94;;;10.41;100.00
74905;BME280;63465;50.862;6.220;2023-04-16T11:33:42;100644.47;;;10.78;100.00
74905;BME280;63465;50.862;6.220;2023-04-16T11:36:08;100646.97;;;10.82;100.00
74905;BME280;63465;50.862;6.220;2023-04-16T11:38:35;100651.31;;;10.85;97.59
74905;BME280;63465;50.862;6.220;2023-04-16T11:41:01;100650.22;;;10.65;100.00
74905;BME280;63465;50.862;6.220;2023-04-16T11:43:26;100652.88;;;10.39;100.00
74905;BME280;63465;50.862;6.220;2023-04-16T11:45:59;100649.44;;;10.35;99.59
74905;BME280;63465;50.862;6.220;2023-04-16T11:48:25;100650.56;;;10.28;100.00
74905;BME280;63465;50.862;6.220;2023-04-16T11:50:55;100653.53;;;10.45;99.27
74905;BME280;63465;50.862;6.220;2023-04-16T11:53:20;100649.66;;;10.56;97.49
74905;BME280;63465;50.862;6.220;2023-04-16T11:55:46;100650.78;;;10.75;97.64
74905;BME280;63465;50.862;6.220;2023-04-16T11:58:12;100645.94;;;11.12;98.37
74905;BME280;63465;50.862;6.220;2023-04-16T12:00:39;100647.09;;;11.04;97.33
74905;BME280;63465;50.862;6.220;2023-04-16T12:03:05;100643.44;;;11.32;96.53
74905;BME280;63465;50.862;6.220;2023-04-16T12:05:35;100647.03;;;11.55;94.54
74905;BME280;63465;50.862;6.220;2023-04-16T12:08:07;100640.38;;;11.43;93.56
74905;BME280;63465;50.862;6.220;2023-04-16T12:10:35;100648.56;;;11.60;94.80
74905;BME280;63465;50.862;6.220;2023-04-16T12:13:15;100644.03;;;11.64;92.28
74905;BME280;63465;50.862;6.220;2023-04-16T12:18:12;100650.84;;;11.24;96.83
74905;BME280;63465;50.862;6.220;2023-04-16T12:20:39;100649.91;;;11.49;95.97
74905;BME280;63465;50.862;6.220;2023-04-16T12:23:08;100646.13;;;11.54;94.00
74905;BME280;63465;50.862;6.220;2023-04-16T12:25:34;100643.97;;;11.66;93.56
74905;BME280;63465;50.862;6.220;2023-04-16T12:27:59;100643.31;;;11.35;95.02
74905;BME280;63465;50.862;6.220;2023-04-16T12:30:26;100649.84;;;11.27;94.98
74905;BME280;63465;50.862;6.220;2023-04-16T12:33:14;100648.19;;;11.24;93.99
74905;BME280;63465;50.862;6.220;2023-04-16T12:35:40;100649.16;;;11.21;94.35
74905;BME280;63465;50.862;6.220;2023-04-16T12:38:07;100643.94;;;11.18;92.63
74905;BME280;63465;50.862;6.220;2023-04-16T12:40:33;100655.44;;;11.19;91.03
74905;BME280;63465;50.862;6.220;2023-04-16T12:42:58;100648.97;;;11.26;92.11
74905;BME280;63465;50.862;6.220;2023-04-16T12:45:24;100657.94;;;11.47;90.50
74905;BME280;63465;50.862;6.220;2023-04-16T12:47:49;100650.50;;;11.33;91.90
74905;BME280;63465;50.862;6.220;2023-04-16T12:50:15;100654.50;;;11.20;92.96
74905;BME280;63465;50.862;6.220;2023-04-16T12:52:41;100653.59;;;11.21;93.09
74905;BME280;63465;50.862;6.220;2023-04-16T12:55:06;100655.19;;;11.25;93.55
74905;BME280;63465;50.862;6.220;2023-04-16T12:57:32;100655.66;;;11.13;94.60
74905;BME280;63465;50.862;6.220;2023-04-16T12:59:57;100659.94;;;11.17;95.90
74905;BME280;63465;50.862;6.220;2023-04-16T13:02:24;100661.19;;;11.06;96.03
74905;BME280;63465;50.862;6.220;2023-04-16T13:04:52;100660.31;;;11.06;97.37
74905;BME280;63465;50.862;6.220;2023-04-16T13:07:18;100656.84;;;11.04;97.83
74905;BME280;63465;50.862;6.220;2023-04-16T13:09:44;100652.81;;;11.17;95.47
74905;BME280;63465;50.862;6.220;2023-04-16T13:12:10;100646.09;;;11.32;96.06
74905;BME280;63465;50.862;6.220;2023-04-16T13:14:35;100648.97;;;11.50;94.86
74905;BME280;63465;50.862;6.220;2023-04-16T13:17:01;100645.72;;;11.65;93.76
74905;BME280;63465;50.862;6.220;2023-04-16T13:19:27;100642.34;;;11.62;94.78
74905;BME280;63465;50.862;6.220;2023-04-16T13:21:53;100654.72;;;11.63;94.43
74905;BME280;63465;50.862;6.220;2023-04-16T13:24:18;100651.00;;;11.43;93.00
74905;BME280;63465;50.862;6.220;2023-04-16T13:26:43;100649.22;;;11.67;92.20
74905;BME280;63465;50.862;6.220;2023-04-16T13:29:09;100659.72;;;11.47;92.02
74905;BME280;63465;50.862;6.220;2023-04-16T13:31:35;100652.50;;;11.74;91.28
74905;BME280;63465;50.862;6.220;2023-04-16T13:34:00;100658.47;;;11.57;92.98
74905;BME280;63465;50.862;6.220;2023-04-16T13:36:26;100647.81;;;11.57;91.82
74905;BME280;63465;50.862;6.220;2023-04-16T13:38:51;100648.31;;;11.67;92.79
74905;BME280;63465;50.862;6.220;2023-04-16T13:41:17;100650.94;;;11.68;92.99
74905;BME280;63465;50.862;6.220;2023-04-16T13:43:42;100642.66;;;12.00;92.77
74905;BME280;63465;50.862;6.220;2023-04-16T13:46:07;100642.06;;;11.93;92.03
74905;BME280;63465;50.862;6.220;2023-04-16T13:48:32;100643.38;;;11.81;90.52
74905;BME280;63465;50.862;6.220;2023-04-16T13:50:58;100645.50;;;11.95;90.23
74905;BME280;63465;50.862;6.220;2023-04-16T13:53:23;100649.44;;;11.61;92.15
74905;BME280;63465;50.862;6.220;2023-04-16T13:55:48;100653.38;;;11.27;94.06
74905;BME280;63465;50.862;6.220;2023-04-16T13:58:14;100653.44;;;11.26;94.87
74905;BME280;63465;50.862;6.220;2023-04-16T14:00:40;100646.59;;;11.42;93.95
74905;BME280;63465;50.862;6.220;2023-04-16T14:03:06;100650.53;;;11.55;93.55
74905;BME280;63465;50.862;6.220;2023-04-16T14:05:31;100644.59;;;11.72;93.17
74905;BME280;63465;50.862;6.220;2023-04-16T14:07:57;100655.34;;;11.93;93.00
74905;BME280;63465;50.862;6.220;2023-04-16T14:10:22;100651.81;;;11.69;93.32
74905;BME280;63465;50.862;6.220;2023-04-16T14:12:47;100651.97;;;11.88;93.43
74905;BME280;63465;50.862;6.220;2023-04-16T14:15:13;100645.78;;;11.64;92.40
74905;BME280;63465;50.862;6.220;2023-04-16T14:17:41;100652.72;;;11.68;93.37
74905;BME280;63465;50.862;6.220;2023-04-16T14:20:08;100645.72;;;11.65;94.53
74905;BME280;63465;50.862;6.220;2023-04-16T14:22:34;100645.97;;;11.59;94.40
74905;BME280;63465;50.862;6.220;2023-04-16T14:24:59;100654.41;;;11.47;95.32
74905;BME280;63465;50.862;6.220;2023-04-16T14:27:25;100647.47;;;11.66;94.03
74905;BME280;63465;50.862;6.220;2023-04-16T14:29:51;100656.88;;;11.51;94.55
74905;BME280;63465;50.862;6.220;2023-04-16T14:32:16;100657.06;;;11.47;94.65
74905;BME280;63465;50.862;6.220;2023-04-16T14:34:42;100662.66;;;11.39;94.63
74905;BME280;63465;50.862;6.220;2023-04-16T14:37:07;100662.75;;;11.12;94.68
74905;BME280;63465;50.862;6.220;2023-04-16T14:39:32;100664.06;;;11.26;95.38
74905;BME280;63465;50.862;6.220;2023-04-16T14:41:57;100662.97;;;11.06;94.92
74905;BME280;63465;50.862;6.220;2023-04-16T14:44:23;100668.75;;;11.17;94.64
74905;BME280;63465;50.862;6.220;2023-04-16T14:46:48;100664.63;;;11.09;94.90
74905;BME280;63465;50.862;6.220;2023-04-16T14:49:13;100649.31;;;11.17;94.33
74905;BME280;63465;50.862;6.220;2023-04-16T14:51:39;100659.50;;;11.29;94.27
74905;BME280;63465;50.862;6.220;2023-04-16T14:54:05;100647.50;;;11.42;93.85
74905;BME280;63465;50.862;6.220;2023-04-16T14:56:30;100638.81;;;11.37;93.63
74905;BME280;63465;50.862;6.220;2023-04-16T14:58:56;100644.72;;;11.46;92.73
74905;BME280;63465;50.862;6.220;2023-04-16T15:01:21;100638.03;;;11.81;92.08
74905;BME280;63465;50.862;6.220;2023-04-16T15:03:46;100641.50;;;11.83;91.61
74905;BME280;63465;50.862;6.220;2023-04-16T15:06:12;100636.38;;;12.02;92.09
74905;BME280;63465;50.862;6.220;2023-04-16T15:08:37;100643.19;;;11.62;93.16
74905;BME280;63465;50.862;6.220;2023-04-16T15:11:03;100632.94;;;11.99;91.92
74905;BME280;63465;50.862;6.220;2023-04-16T15:13:28;100636.81;;;11.90;91.55
74905;BME280;63465;50.862;6.220;2023-04-16T15:16:01;100637.59;;;11.93;91.97
74905;BME280;63465;50.862;6.220;2023-04-16T15:18:27;100637.63;;;11.92;90.93
74905;BME280;63465;50.862;6.220;2023-04-16T15:20:53;100637.28;;;11.77;90.82
74905;BME280;63465;50.862;6.220;2023-04-16T15:23:19;100639.56;;;11.65;93.38
74905;BME280;63465;50.862;6.220;2023-04-16T15:25:45;100631.22;;;11.27;93.39
74905;BME280;63465;50.862;6.220;2023-04-16T15:28:11;100637.53;;;11.48;92.54
74905;BME280;63465;50.862;6.220;2023-04-16T15:30:38;100645.41;;;11.51;93.36
74905;BME280;63465;50.862;6.220;2023-04-16T15:33:03;100639.38;;;11.22;94.62
74905;BME280;63465;50.862;6.220;2023-04-16T15:35:29;100641.22;;;11.20;95.11
74905;BME280;63465;50.862;6.220;2023-04-16T15:37:54;100642.97;;;11.21;95.22
74905;BME280;63465;50.862;6.220;2023-04-16T15:40:19;100649.88;;;11.25;96.57
74905;BME280;63465;50.862;6.220;2023-04-16T15:42:45;100651.84;;;11.20;97.94
74905;BME280;63465;50.862;6.220;2023-04-16T15:45:10;100649.53;;;11.11;97.98
74905;BME280;63465;50.862;6.220;2023-04-16T15:47:36;100650.78;;;11.26;97.91
74905;BME280;63465;50.862;6.220;2023-04-16T15:50:01;100647.28;;;11.23;98.14
74905;BME280;63465;50.862;6.220;2023-04-16T15:52:27;100648.13;;;11.26;98.19
74905;BME280;63465;50.862;6.220;2023-04-16T15:54:53;100645.63;;;11.21;96.68
74905;BME280;63465;50.862;6.220;2023-04-16T15:57:19;100659.94;;;11.17;97.09
74905;BME280;63465;50.862;6.220;2023-04-16T15:59:44;100654.13;;;11.05;97.26
74905;BME280;63465;50.862;6.220;2023-04-16T16:02:10;100651.31;;;11.10;97.03
74905;BME280;63465;50.862;6.220;2023-04-16T16:04:35;100658.09;;;11.19;96.38
74905;BME280;63465;50.862;6.220;2023-04-16T16:07:00;100656.72;;;11.32;96.55
74905;BME280;63465;50.862;6.220;2023-04-16T16:09:27;100653.72;;;11.16;96.38
74905;BME280;63465;50.862;6.220;2023-04-16T16:11:52;100650.25;;;10.91;96.60
74905;BME280;63465;50.862;6.220;2023-04-16T16:14:18;100660.53;;;11.00;97.43
74905;BME280;63465;50.862;6.220;2023-04-16T16:16:44;100657.28;;;10.92;97.23
74905;BME280;63465;50.862;6.220;2023-04-16T16:19:10;100660.34;;;10.79;98.23
74905;BME280;63465;50.862;6.220;2023-04-16T16:21:35;100667.47;;;10.79;98.54
74905;BME280;63465;50.862;6.220;2023-04-16T16:24:01;100667.94;;;10.65;98.90
74905;BME280;63465;50.862;6.220;2023-04-16T16:26:26;100671.56;;;10.62;99.82
74905;BME280;63465;50.862;6.220;2023-04-16T16:28:52;100668.91;;;10.62;99.14
74905;BME280;63465;50.862;6.220;2023-04-16T16:31:17;100665.63;;;10.54;100.00
74905;BME280;63465;50.862;6.220;2023-04-16T16:33:42;100670.63;;;10.63;100.00
74905;BME280;63465;50.862;6.220;2023-04-16T16:36:10;100665.69;;;10.52;100.00
74905;BME280;63465;50.862;6.220;2023-04-16T16:38:36;100665.44;;;10.60;100.00
74905;BME280;63465;50.862;6.220;2023-04-16T16:41:02;100664.81;;;10.52;100.00
74905;BME280;63465;50.862;6.220;2023-04-16T16:43:27;100658.53;;;10.55;100.00
74905;BME280;63465;50.862;6.220;2023-04-16T16:45:52;100664.78;;;10.53;100.00
74905;BME280;63465;50.862;6.220;2023-04-16T16:48:18;100665.44;;;10.60;100.00
74905;BME280;63465;50.862;6.220;2023-04-16T16:50:43;100662.13;;;10.53;100.00
74905;BME280;63465;50.862;6.220;2023-04-16T16:53:08;100671.00;;;10.52;100.00
74905;BME280;63465;50.862;6.220;2023-04-16T16:55:33;100664.84;;;10.50;100.00
74905;BME280;63465;50.862;6.220;2023-04-16T16:57:59;100665.75;;;10.51;100.00
74905;BME280;63465;50.862;6.220;2023-04-16T17:00:25;100678.84;;;10.56;100.00
74905;BME280;63465;50.862;6.220;2023-04-16T17:02:50;100677.25;;;10.50;100.00
74905;BME280;63465;50.862;6.220;2023-04-16T17:05:16;100673.50;;;10.57;100.00
74905;BME280;63465;50.862;6.220;2023-04-16T17:07:41;100672.75;;;10.52;99.81
74905;BME280;63465;50.862;6.220;2023-04-16T17:10:08;100672.09;;;10.45;100.00
74905;BME280;63465;50.862;6.220;2023-04-16T17:12:35;100670.41;;;10.43;100.00
74905;BME280;63465;50.862;6.220;2023-04-16T17:15:01;100674.06;;;10.40;99.90
74905;BME280;63465;50.862;6.220;2023-04-16T17:17:26;100670.22;;;10.49;99.82
74905;BME280;63465;50.862;6.220;2023-04-16T17:19:52;100671.84;;;10.53;99.04
74905;BME280;63465;50.862;6.220;2023-04-16T17:22:17;100674.78;;;10.45;99.59
74905;BME280;63465;50.862;6.220;2023-04-16T17:24:43;100674.72;;;10.47;99.90
74905;BME280;63465;50.862;6.220;2023-04-16T17:27:08;100670.38;;;10.44;99.96
74905;BME280;63465;50.862;6.220;2023-04-16T17:29:33;100675.03;;;10.38;100.00
74905;BME280;63465;50.862;6.220;2023-04-16T17:31:59;100669.41;;;10.47;99.78
74905;BME280;63465;50.862;6.220;2023-04-16T17:34:25;100672.75;;;10.52;99.66
74905;BME280;63465;50.862;6.220;2023-04-16T17:36:50;100674.09;;;10.39;100.00
74905;BME280;63465;50.862;6.220;2023-04-16T17:39:15;100673.81;;;10.48;99.89
74905;BME280;63465;50.862;6.220;2023-04-16T17:41:41;100683.47;;;10.49;100.00
74905;BME280;63465;50.862;6.220;2023-04-16T17:44:07;100686.13;;;10.49;100.00
74905;BME280;63465;50.862;6.220;2023-04-16T17:46:32;100677.38;;;10.47;99.80
74905;BME280;63465;50.862;6.220;2023-04-16T17:48:57;100684.63;;;10.42;100.00
74905;BME280;63465;50.862;6.220;2023-04-16T17:51:23;100692.63;;;10.40;99.47
74905;BME280;63465;50.862;6.220;2023-04-16T17:53:49;100702.47;;;10.37;100.00
74905;BME280;63465;50.862;6.220;2023-04-16T17:56:15;100690.19;;;10.32;100.00
74905;BME280;63465;50.862;6.220;2023-04-16T17:58:40;100698.94;;;10.36;100.00
74905;BME280;63465;50.862;6.220;2023-04-16T18:01:05;100700.91;;;10.29;100.00
74905;BME280;63465;50.862;6.220;2023-04-16T18:03:31;100700.66;;;10.39;99.70
74905;BME280;63465;50.862;6.220;2023-04-16T18:05:56;100696.56;;;10.27;100.00
74905;BME280;63465;50.862;6.220;2023-04-16T18:08:22;100699.06;;;10.31;100.00
74905;BME280;63465;50.862;6.220;2023-04-16T18:10:49;100699.84;;;10.35;99.62
74905;BME280;63465;50.862;6.220;2023-04-16T18:13:14;100706.16;;;10.31;99.40
74905;BME280;63465;50.862;6.220;2023-04-16T18:15:39;100707.03;;;10.31;99.07
74905;BME280;63465;50.862;6.220;2023-04-16T18:18:06;100713.53;;;10.21;99.56
74905;BME280;63465;50.862;6.220;2023-04-16T18:20:32;100711.81;;;10.20;99.71
74905;BME280;63465;50.862;6.220;2023-04-16T18:22:57;100713.38;;;10.26;99.67
74905;BME280;63465;50.862;6.220;2023-04-16T18:25:22;100717.72;;;10.28;98.91
74905;BME280;63465;50.862;6.220;2023-04-16T18:27:48;100710.91;;;10.20;99.52
74905;BME280;63465;50.862;6.220;2023-04-16T18:30:13;100712.00;;;10.14;99.80
74905;BME280;63465;50.862;6.220;2023-04-16T18:32:38;100715.69;;;10.08;100.00
74905;BME280;63465;50.862;6.220;2023-04-16T18:35:05;100708.31;;;10.18;99.25
74905;BME280;63465;50.862;6.220;2023-04-16T18:37:31;100714.50;;;10.18;99.52
74905;BME280;63465;50.862;6.220;2023-04-16T18:39:57;100723.56;;;10.11;99.60
74905;BME280;63465;50.862;6.220;2023-04-16T18:42:23;100715.84;;;10.04;100.00
74905;BME280;63465;50.862;6.220;2023-04-16T18:44:51;100724.31;;;10.15;99.98
74905;BME280;63465;50.862;6.220;2023-04-16T18:47:17;100719.31;;;10.06;100.00
74905;BME280;63465;50.862;6.220;2023-04-16T18:49:42;100717.63;;;10.03;100.00
74905;BME280;63465;50.862;6.220;2023-04-16T18:52:07;100726.44;;;10.04;99.98
74905;BME280;63465;50.862;6.220;2023-04-16T18:54:32;100725.34;;;10.11;99.52
74905;BME280;63465;50.862;6.220;2023-04-16T18:56:58;100725.50;;;10.06;100.00
74905;BME280;63465;50.862;6.220;2023-04-16T18:59:23;100730.97;;;10.00;100.00
74905;BME280;63465;50.862;6.220;2023-04-16T19:01:48;100734.31;;;10.07;99.89
74905;BME280;63465;50.862;6.220;2023-04-16T19:04:14;100735.34;;;10.01;100.00
74905;BME280;63465;50.862;6.220;2023-04-16T19:06:40;100729.97;;;10.04;99.80
74905;BME280;63465;50.862;6.220;2023-04-16T19:09:05;100731.88;;;9.99;100.00
74905;BME280;63465;50.862;6.220;2023-04-16T19:11:30;100729.81;;;10.09;99.89
74905;BME280;63465;50.862;6.220;2023-04-16T19:13:56;100732.78;;;9.98;100.00
74905;BME280;63465;50.862;6.220;2023-04-16T19:16:21;100734.44;;;10.02;100.00
74905;BME280;63465;50.862;6.220;2023-04-16T19:18:47;100739.09;;;9.95;100.00
74905;BME280;63465;50.862;6.220;2023-04-16T19:21:12;100741.06;;;9.87;100.00
74905;BME280;63465;50.862;6.220;2023-04-16T19:23:37;100746.38;;;9.87;100.00
74905;BME280;63465;50.862;6.220;2023-04-16T19:26:02;100754.16;;;9.93;100.00
74905;BME280;63465;50.862;6.220;2023-04-16T19:28:28;100750.78;;;9.88;100.00
74905;BME280;63465;50.862;6.220;2023-04-16T19:30:53;100747.38;;;9.83;100.00
74905;BME280;63465;50.862;6.220;2023-04-16T19:33:19;100749.88;;;9.89;100.00
74905;BME280;63465;50.862;6.220;2023-04-16T19:35:45;100746.31;;;9.89;100.00
74905;BME280;63465;50.862;6.220;2023-04-16T19:38:10;100743.63;;;9.90;100.00
74905;BME280;63465;50.862;6.220;2023-04-16T19:40:36;100743.63;;;9.90;100.00
74905;BME280;63465;50.862;6.220;2023-04-16T19:43:02;100748.25;;;9.84;100.00
74905;BME280;63465;50.862;6.220;2023-04-16T19:45:28;100748.16;;;9.87;100.00
74905;BME280;63465;50.862;6.220;2023-04-16T19:47:53;100750.09;;;9.80;100.00
74905;BME280;63465;50.862;6.220;2023-04-16T19:50:19;100752.56;;;9.88;100.00
74905;BME280;63465;50.862;6.220;2023-04-16T19:52:44;100745.75;;;9.79;100.00
74905;BME280;63465;50.862;6.220;2023-04-16T19:55:10;100742.00;;;9.85;100.00
74905;BME280;63465;50.862;6.220;2023-04-16T19:57:35;100747.53;;;9.77;100.00
74905;BME280;63465;50.862;6.220;2023-04-16T20:00:01;100748.66;;;9.70;100.00
74905;BME280;63465;50.862;6.220;2023-04-16T20:02:26;100744.16;;;9.72;100.00
74905;BME280;63465;50.862;6.220;2023-04-16T20:04:52;100745.06;;;9.71;100.00
74905;BME280;63465;50.862;6.220;2023-04-16T20:07:17;100739.50;;;9.80;100.00
74905;BME280;63465;50.862;6.220;2023-04-16T20:09:43;100748.47;;;9.76;100.00
74905;BME280;63465;50.862;6.220;2023-04-16T20:12:08;100753.06;;;9.69;100.00
74905;BME280;63465;50.862;6.220;2023-04-16T20:14:33;100749.47;;;9.72;100.00
74905;BME280;63465;50.862;6.220;2023-04-16T20:16:59;100745.16;;;9.68;100.00
74905;BME280;63465;50.862;6.220;2023-04-16T20:19:25;100745.06;;;9.71;100.00
74905;BME280;63465;50.862;6.220;2023-04-16T20:21:58;100746.94;;;9.67;100.00
74905;BME280;63465;50.862;6.220;2023-04-16T20:24:23;100739.34;;;9.55;100.00
74905;BME280;63465;50.862;6.220;2023-04-16T20:26:48;100756.72;;;9.65;100.00
74905;BME280;63465;50.862;6.220;2023-04-16T20:29:14;100750.53;;;9.64;100.00
74905;BME280;63465;50.862;6.220;2023-04-16T20:31:39;100751.53;;;9.62;100.00
74905;BME280;63465;50.862;6.220;2023-04-16T20:34:07;100752.56;;;9.56;100.00
74905;BME280;63465;50.862;6.220;2023-04-16T20:36:32;100757.63;;;9.64;100.00
74905;BME280;63465;50.862;6.220;2023-04-16T20:38:57;100751.59;;;9.59;100.00
74905;BME280;63465;50.862;6.220;2023-04-16T20:41:23;100755.84;;;9.64;100.00
74905;BME280;63465;50.862;6.220;2023-04-16T20:43:49;100747.06;;;9.62;100.00
74905;BME280;63465;50.862;6.220;2023-04-16T20:46:16;100753.44;;;9.55;100.00
74905;BME280;63465;50.862;6.220;2023-04-16T20:48:42;100756.78;;;9.63;100.00
74905;BME280;63465;50.862;6.220;2023-04-16T20:51:08;100749.72;;;9.62;100.00
74905;BME280;63465;50.862;6.220;2023-04-16T20:53:34;100749.81;;;9.59;100.00
74905;BME280;63465;50.862;6.220;2023-04-16T20:56:01;100748.81;;;9.63;100.00
74905;BME280;63465;50.862;6.220;2023-04-16T20:58:27;100748.06;;;9.58;100.00
74905;BME280;63465;50.862;6.220;2023-04-16T21:00:54;100746.13;;;9.65;100.00
74905;BME280;63465;50.862;6.220;2023-04-16T21:03:20;100746.47;;;9.53;100.00
74905;BME280;63465;50.862;6.220;2023-04-16T21:05:53;100744.78;;;9.50;100.00
74905;BME280;63465;50.862;6.220;2023-04-16T21:08:22;100753.41;;;9.57;100.00
74905;BME280;63465;50.862;6.220;2023-04-16T21:10:48;100746.44;;;9.54;100.00
74905;BME280;63465;50.862;6.220;2023-04-16T21:13:13;100744.72;;;9.52;100.00
74905;BME280;63465;50.862;6.220;2023-04-16T21:15:40;100749.81;;;9.59;100.00
74905;BME280;63465;50.862;6.220;2023-04-16T21:18:06;100749.88;;;9.58;100.00
74905;BME280;63465;50.862;6.220;2023-04-16T21:20:32;100748.31;;;9.49;100.00
74905;BME280;63465;50.862;6.220;2023-04-16T21:22:58;100741.97;;;9.56;100.00
74905;BME280;63465;50.862;6.220;2023-04-16T21:25:23;100749.19;;;9.51;100.00